createdAt,value
2022-11-05T00:00:37.744Z,1.07
2022-11-05T00:03:24.100Z,1.13
2022-11-05T00:06:12.098Z,1.37
2022-11-05T00:08:58.777Z,1.80
2022-11-05T00:11:45.798Z,1.20
2022-11-05T00:14:31.776Z,1.20
2022-11-05T00:16:58.738Z,1.20
2022-11-05T00:19:25.823Z,1.20
2022-11-05T00:22:11.540Z,3.90
2022-11-05T00:24:57.395Z,1.27
2022-11-05T00:27:26.923Z,1.27
2022-11-05T00:29:53.907Z,1.10
2022-11-05T00:32:21.024Z,1.30
2022-11-05T00:34:48.154Z,1.00
2022-11-05T00:37:15.220Z,1.10
2022-11-05T00:39:42.333Z,1.40
2022-11-05T00:42:28.009Z,1.10
2022-11-05T00:45:04.699Z,1.10
2022-11-05T00:47:51.637Z,1.10
2022-11-05T00:50:20.325Z,0.87
2022-11-05T00:52:58.184Z,1.20
2022-11-05T00:55:46.145Z,1.20
2022-11-05T00:58:18.131Z,1.20
2022-11-05T01:00:49.687Z,1.00
2022-11-05T01:03:18.012Z,1.03
2022-11-05T01:05:53.352Z,1.40
2022-11-05T01:08:22.252Z,0.90
2022-11-05T01:10:51.954Z,0.90
2022-11-05T01:13:25.744Z,1.17
2022-11-05T01:15:53.628Z,1.00
2022-11-05T01:18:21.825Z,1.10
2022-11-05T01:20:49.090Z,1.00
2022-11-05T01:23:16.924Z,1.00
2022-11-05T01:25:44.776Z,1.23
2022-11-05T01:28:11.817Z,1.17
2022-11-05T01:30:39.387Z,1.37
2022-11-05T01:33:06.673Z,1.10
2022-11-05T01:35:33.804Z,1.70
2022-11-05T01:38:01.134Z,3.07
2022-11-05T01:40:28.133Z,1.93
2022-11-05T01:42:55.436Z,1.57
2022-11-05T01:45:25.254Z,1.10
2022-11-05T01:48:04.360Z,1.07
2022-11-05T01:50:36.512Z,1.17
2022-11-05T01:53:13.999Z,1.47
2022-11-05T01:55:45.092Z,1.37
2022-11-05T01:58:16.750Z,1.20
2022-11-05T02:00:44.537Z,1.40
2022-11-05T02:03:13.447Z,1.00
2022-11-05T02:05:42.306Z,1.60
2022-11-05T02:08:13.906Z,1.10
2022-11-05T02:10:43.230Z,1.70
2022-11-05T02:13:10.424Z,1.20
2022-11-05T02:15:59.143Z,1.60
2022-11-05T02:18:32.541Z,1.27
2022-11-05T02:21:34.948Z,1.13
2022-11-05T02:24:10.832Z,1.23
2022-11-05T02:26:44.109Z,1.77
2022-11-05T02:29:25.937Z,1.53
2022-11-05T02:32:20.900Z,1.30
2022-11-05T02:35:03.710Z,1.63
2022-11-05T02:37:36.631Z,1.03
2022-11-05T02:40:18.123Z,1.27
2022-11-05T02:43:01.681Z,1.00
2022-11-05T02:46:15.073Z,1.57
2022-11-05T02:49:01.228Z,1.30
2022-11-05T02:51:53.022Z,1.30
2022-11-05T02:54:27.431Z,1.20
2022-11-05T02:56:58.959Z,1.10
2022-11-05T02:59:26.284Z,1.97
2022-11-05T03:01:53.695Z,1.10
2022-11-05T03:04:22.659Z,1.20
2022-11-05T03:07:12.631Z,1.00
2022-11-05T03:10:21.917Z,2.43
2022-11-05T03:13:10.578Z,1.00
2022-11-05T03:15:58.672Z,1.70
2022-11-05T03:18:33.633Z,1.10
2022-11-05T03:21:04.734Z,1.27
2022-11-05T03:23:39.977Z,1.13
2022-11-05T03:26:17.818Z,1.37
2022-11-05T03:28:48.445Z,1.17
2022-11-05T03:31:17.562Z,1.07
2022-11-05T03:33:45.459Z,1.20
2022-11-05T03:36:27.133Z,1.10
2022-11-05T03:38:55.779Z,1.40
2022-11-05T03:41:26.536Z,1.20
2022-11-05T03:43:56.429Z,1.00
2022-11-05T03:46:35.487Z,1.20
2022-11-05T03:49:04.661Z,1.40
2022-11-05T03:52:02.087Z,1.07
2022-11-05T03:54:30.583Z,2.33
2022-11-05T03:57:11.457Z,1.60
2022-11-05T03:59:44.575Z,1.50
2022-11-05T04:02:13.731Z,1.20
2022-11-05T04:04:41.192Z,1.37
2022-11-05T04:07:30.590Z,1.27
2022-11-05T04:10:16.877Z,0.90
2022-11-05T04:13:02.691Z,1.00
2022-11-05T04:15:29.899Z,1.83
2022-11-05T04:17:59.198Z,1.03
2022-11-05T04:20:45.305Z,3.00
2022-11-05T04:23:31.303Z,1.00
2022-11-05T04:25:58.290Z,1.00
2022-11-05T04:28:45.301Z,1.83
2022-11-05T04:31:12.305Z,1.10
2022-11-05T04:33:39.275Z,1.73
2022-11-05T04:36:06.867Z,1.00
2022-11-05T04:38:33.967Z,1.60
2022-11-05T04:41:16.521Z,0.97
2022-11-05T04:43:44.172Z,1.17
2022-11-05T04:46:11.179Z,1.10
2022-11-05T04:48:38.486Z,2.03
2022-11-05T04:51:05.826Z,1.20
2022-11-05T04:53:32.916Z,1.73
2022-11-05T04:56:14.826Z,1.00
2022-11-05T04:58:42.958Z,1.70
2022-11-05T05:01:14.460Z,2.27
2022-11-05T05:03:41.703Z,1.50
2022-11-05T05:06:09.006Z,1.10
2022-11-05T05:08:36.452Z,1.63
2022-11-05T05:11:08.083Z,1.23
2022-11-05T05:13:35.633Z,1.43
2022-11-05T05:16:10.310Z,3.03
2022-11-05T05:18:45.066Z,1.40
2022-11-05T05:21:32.802Z,1.20
2022-11-05T05:24:00.135Z,0.90
2022-11-05T05:26:27.678Z,1.30
2022-11-05T05:28:54.715Z,1.03
2022-11-05T05:31:22.558Z,1.43
2022-11-05T05:33:49.737Z,0.97
2022-11-05T05:36:16.858Z,1.30
2022-11-05T05:38:44.081Z,1.10
2022-11-05T05:41:11.200Z,2.10
2022-11-05T05:43:38.315Z,1.37
2022-11-05T05:46:07.686Z,2.00
2022-11-05T05:48:35.092Z,1.57
2022-11-05T05:51:03.740Z,1.00
2022-11-05T05:53:31.228Z,1.13
2022-11-05T05:55:59.189Z,1.10
2022-11-05T05:58:27.666Z,1.70
2022-11-05T06:00:55.436Z,1.47
2022-11-05T06:03:22.447Z,1.20
2022-11-05T06:05:49.729Z,1.33
2022-11-05T06:08:16.787Z,1.10
2022-11-05T06:10:49.970Z,1.43
2022-11-05T06:13:16.982Z,1.10
2022-11-05T06:15:44.062Z,2.33
2022-11-05T06:18:11.037Z,1.60
2022-11-05T06:20:38.305Z,1.70
2022-11-05T06:23:05.304Z,1.13
2022-11-05T06:25:39.976Z,2.67
2022-11-05T06:28:08.313Z,0.93
2022-11-05T06:30:35.386Z,1.60
2022-11-05T06:33:04.101Z,1.27
2022-11-05T06:35:31.327Z,1.20
2022-11-05T06:38:02.144Z,1.40
2022-11-05T06:40:29.605Z,3.30
2022-11-05T06:42:57.068Z,1.23
2022-11-05T06:45:24.211Z,1.00
2022-11-05T06:47:58.858Z,2.43
2022-11-05T06:50:27.458Z,1.33
2022-11-05T06:52:59.120Z,1.00
2022-11-05T06:55:28.242Z,1.53
2022-11-05T06:57:56.266Z,1.00
2022-11-05T07:00:24.058Z,1.10
2022-11-05T07:02:50.998Z,1.20
2022-11-05T07:05:18.371Z,1.30
2022-11-05T07:07:45.905Z,0.97
2022-11-05T07:10:15.874Z,1.10
2022-11-05T07:12:43.238Z,1.10
2022-11-05T07:15:11.638Z,1.23
2022-11-05T07:17:39.862Z,1.77
2022-11-05T07:20:08.531Z,2.43
2022-11-05T07:22:36.283Z,1.67
2022-11-05T07:25:04.063Z,1.07
2022-11-05T07:27:31.212Z,1.20
2022-11-05T07:29:58.577Z,5.63
2022-11-05T07:32:25.802Z,1.10
2022-11-05T07:34:52.840Z,1.20
2022-11-05T07:37:20.046Z,1.00
2022-11-05T07:39:47.116Z,1.60
2022-11-05T07:42:14.329Z,1.37
2022-11-05T07:44:41.749Z,1.53
2022-11-05T07:47:08.767Z,1.10
2022-11-05T07:49:36.031Z,1.50
2022-11-05T07:52:03.093Z,1.43
2022-11-05T07:54:30.214Z,1.00
2022-11-05T07:56:57.433Z,1.80
2022-11-05T07:59:24.637Z,1.07
2022-11-05T08:01:51.889Z,2.60
2022-11-05T08:04:18.985Z,0.97
2022-11-05T08:06:46.055Z,1.43
2022-11-05T08:09:13.199Z,2.60
2022-11-05T08:11:40.377Z,1.67
2022-11-05T08:14:07.673Z,1.17
2022-11-05T08:16:34.800Z,2.33
2022-11-05T08:19:01.903Z,1.00
2022-11-05T08:21:31.940Z,2.13
2022-11-05T08:23:58.957Z,1.20
2022-11-05T08:26:26.060Z,1.47
2022-11-05T08:28:53.222Z,1.40
2022-11-05T08:31:20.326Z,1.27
2022-11-05T08:33:50.604Z,1.17
2022-11-05T08:36:17.917Z,1.60
2022-11-05T08:38:45.120Z,1.57
2022-11-05T08:41:12.614Z,1.10
2022-11-05T08:43:39.834Z,1.63
2022-11-05T08:46:06.880Z,0.97
2022-11-05T08:48:34.087Z,1.53
2022-11-05T08:51:02.125Z,1.10
2022-11-05T08:53:29.425Z,3.10
2022-11-05T08:56:00.733Z,1.20
2022-11-05T08:58:28.129Z,1.30
2022-11-05T09:00:58.979Z,1.20
2022-11-05T09:03:29.043Z,1.63
2022-11-05T09:05:56.257Z,1.33
2022-11-05T09:08:23.298Z,1.10
2022-11-05T09:10:50.478Z,1.00
2022-11-05T09:13:19.766Z,1.20
2022-11-05T09:15:49.153Z,1.10
2022-11-05T09:18:16.567Z,1.30
2022-11-05T09:20:43.993Z,1.33
2022-11-05T09:23:15.053Z,1.10
2022-11-05T09:25:42.396Z,1.50
2022-11-05T09:28:20.931Z,1.17
2022-11-05T09:30:50.242Z,1.73
2022-11-05T09:33:23.030Z,1.07
2022-11-05T09:35:50.116Z,1.10
2022-11-05T09:38:17.492Z,1.20
2022-11-05T09:41:08.894Z,1.30
2022-11-05T09:43:41.328Z,1.53
2022-11-05T09:46:17.798Z,1.43
2022-11-05T09:48:46.125Z,1.50
2022-11-05T09:51:20.731Z,2.03
2022-11-05T09:53:50.743Z,1.20
2022-11-05T09:56:22.197Z,1.00
2022-11-05T09:58:54.004Z,1.10
2022-11-05T10:01:28.743Z,1.23
2022-11-05T10:03:59.010Z,0.90
2022-11-05T10:06:27.275Z,1.57
2022-11-05T10:09:02.030Z,1.67
2022-11-05T10:11:52.536Z,1.90
2022-11-05T10:14:28.423Z,1.10
2022-11-05T10:17:12.878Z,1.17
2022-11-05T10:20:11.565Z,1.83
2022-11-05T10:22:39.206Z,1.50
2022-11-05T10:25:20.172Z,1.10
2022-11-05T10:27:52.366Z,1.50
2022-11-05T10:30:20.882Z,1.20
2022-11-05T10:32:49.060Z,1.47
2022-11-05T10:35:19.822Z,1.10
2022-11-05T10:37:48.091Z,1.10
2022-11-05T10:40:23.959Z,9.00
2022-11-05T10:43:17.722Z,6.20
2022-11-05T10:46:17.069Z,8.00
2022-11-05T10:49:18.831Z,8.73
2022-11-05T10:51:47.279Z,9.23
2022-11-05T10:54:18.791Z,8.93
2022-11-05T10:56:46.434Z,7.20
2022-11-05T10:59:27.971Z,9.23
2022-11-05T11:02:02.040Z,1.10
2022-11-05T11:04:36.545Z,2.63
2022-11-05T11:07:05.137Z,3.10
2022-11-05T11:09:34.174Z,2.63
2022-11-05T11:12:21.829Z,1.73
2022-11-05T11:15:02.476Z,6.50
2022-11-05T11:17:31.730Z,2.70
2022-11-05T11:20:24.472Z,1.20
2022-11-05T11:23:15.797Z,5.17
2022-11-05T11:25:49.804Z,8.93
2022-11-05T11:28:47.433Z,6.63
2022-11-05T11:31:16.960Z,8.93
2022-11-05T11:33:47.072Z,8.07
2022-11-05T11:36:14.746Z,7.00
2022-11-05T11:38:42.400Z,8.03
2022-11-05T11:41:20.991Z,8.68
2022-11-05T11:43:48.232Z,6.80
2022-11-05T11:46:17.628Z,6.47
2022-11-05T11:48:50.112Z,8.93
2022-11-05T11:51:18.891Z,8.23
2022-11-05T11:53:48.397Z,10.57
2022-11-05T11:56:20.345Z,9.33
2022-11-05T11:58:54.307Z,6.60
2022-11-05T12:01:30.288Z,5.03
2022-11-05T12:04:15.726Z,1.10
2022-11-05T12:06:56.019Z,7.33
2022-11-05T12:09:44.871Z,3.70
2022-11-05T12:12:16.681Z,11.53
2022-11-05T12:14:46.946Z,6.10
2022-11-05T12:17:33.182Z,7.27
2022-11-05T12:20:35.853Z,0.93
2022-11-05T12:23:44.557Z,1.30
2022-11-05T12:26:36.168Z,8.77
2022-11-05T12:29:32.839Z,1.10
2022-11-05T12:32:23.032Z,1.10
2022-11-05T12:34:55.018Z,7.33
2022-11-05T12:37:48.494Z,4.70
2022-11-05T12:40:36.242Z,7.10
2022-11-05T12:43:15.518Z,1.23
2022-11-05T12:46:24.320Z,7.87
2022-11-05T12:48:57.199Z,5.63
2022-11-05T12:51:33.464Z,1.70
2022-11-05T12:54:37.996Z,1.40
2022-11-05T12:57:05.972Z,2.23
2022-11-05T13:00:04.138Z,1.70
2022-11-05T13:03:16.073Z,1.40
2022-11-05T13:05:48.228Z,7.43
2022-11-05T13:08:44.037Z,2.45
2022-11-05T13:11:20.605Z,7.73
2022-11-05T13:14:05.214Z,6.53
2022-11-05T13:16:39.506Z,2.13
2022-11-05T13:19:20.783Z,2.47
2022-11-05T13:21:54.749Z,6.83
2022-11-05T13:24:27.663Z,4.87
2022-11-05T13:27:16.334Z,1.80
2022-11-05T13:30:06.713Z,8.63
2022-11-05T13:32:38.264Z,1.63
2022-11-05T13:35:08.389Z,2.47
2022-11-05T13:37:59.921Z,2.67
2022-11-05T13:40:37.090Z,1.00
2022-11-05T13:43:29.304Z,0.80
2022-11-05T13:46:00.131Z,1.60
2022-11-05T13:48:36.692Z,2.23
2022-11-05T13:51:37.715Z,0.90
2022-11-05T13:54:25.072Z,2.30
2022-11-05T13:57:32.484Z,4.73
2022-11-05T14:00:20.655Z,1.23
2022-11-05T14:02:51.088Z,6.00
2022-11-05T14:05:31.113Z,6.10
2022-11-05T14:08:00.839Z,1.40
2022-11-05T14:10:47.606Z,1.00
2022-11-05T14:13:29.712Z,8.20
2022-11-05T14:16:06.780Z,0.90
2022-11-05T14:18:45.789Z,2.40
2022-11-05T14:21:28.119Z,5.90
2022-11-05T14:24:22.282Z,1.00
2022-11-05T14:27:15.667Z,7.90
2022-11-05T14:29:47.120Z,7.50
2022-11-05T14:32:20.474Z,15.43
2022-11-05T14:34:57.411Z,6.83
2022-11-05T14:37:52.597Z,1.80
2022-11-05T14:40:22.515Z,6.53
2022-11-05T14:42:56.675Z,6.50
2022-11-05T14:45:30.365Z,2.27
2022-11-05T14:48:03.252Z,1.10
2022-11-05T14:50:41.775Z,0.97
2022-11-05T14:53:32.583Z,6.70
2022-11-05T14:56:04.837Z,1.10
2022-11-05T14:58:36.933Z,1.60
2022-11-05T15:01:33.580Z,1.00
2022-11-05T15:04:17.907Z,1.20
2022-11-05T15:07:03.508Z,8.07
2022-11-05T15:09:38.833Z,1.13
2022-11-05T15:12:32.365Z,2.50
2022-11-05T15:15:00.673Z,1.43
2022-11-05T15:17:31.912Z,1.97
2022-11-05T15:20:08.166Z,0.90
2022-11-05T15:22:38.736Z,3.10
2022-11-05T15:25:14.648Z,2.33
2022-11-05T15:27:55.139Z,9.13
2022-11-05T15:30:23.840Z,4.80
2022-11-05T15:32:51.680Z,5.97
2022-11-05T15:35:29.981Z,7.27
2022-11-05T15:38:02.529Z,1.23
2022-11-05T15:40:33.728Z,1.93
2022-11-05T15:43:13.299Z,0.80
2022-11-05T15:45:41.051Z,5.97
2022-11-05T15:48:15.798Z,3.67
2022-11-05T15:50:43.068Z,7.70
2022-11-05T15:56:28.876Z,6.23
2022-11-05T15:59:04.915Z,1.53
2022-11-05T16:01:47.127Z,3.57
2022-11-05T16:04:33.432Z,8.17
2022-11-05T16:07:07.028Z,1.37
2022-11-05T16:09:36.681Z,1.20
2022-11-05T16:12:19.696Z,0.93
2022-11-05T16:15:04.665Z,6.53
2022-11-05T16:17:53.781Z,1.27
2022-11-05T16:20:24.126Z,6.33
2022-11-05T16:23:03.666Z,6.50
2022-11-05T16:25:42.482Z,1.10
2022-11-05T16:28:32.271Z,4.60
2022-11-05T16:31:01.980Z,1.30
2022-11-05T16:33:34.724Z,1.77
2022-11-05T16:36:02.003Z,1.10
2022-11-05T16:38:29.521Z,1.93
2022-11-05T16:40:56.782Z,1.10
2022-11-05T16:43:25.314Z,2.50
2022-11-05T16:45:58.618Z,5.10
2022-11-05T16:48:26.456Z,1.20
2022-11-05T16:50:54.223Z,3.63
2022-11-05T16:53:21.706Z,6.27
2022-11-05T16:55:48.997Z,9.23
2022-11-05T16:58:22.606Z,6.03
2022-11-05T17:00:51.234Z,7.90
2022-11-05T17:03:21.743Z,6.60
2022-11-05T17:05:48.937Z,7.80
2022-11-05T17:08:16.223Z,6.83
2022-11-05T17:10:43.323Z,8.40
2022-11-05T17:13:20.296Z,5.10
2022-11-05T17:15:48.990Z,6.33
2022-11-05T17:18:18.911Z,7.80
2022-11-05T17:20:49.272Z,7.23
2022-11-05T17:23:19.060Z,6.83
2022-11-05T17:25:51.321Z,6.50
2022-11-05T17:28:19.362Z,6.77
2022-11-05T17:30:52.396Z,6.10
2022-11-05T17:33:21.819Z,6.40
2022-11-05T17:35:49.131Z,6.97
2022-11-05T17:38:16.489Z,7.00
2022-11-05T17:40:43.782Z,7.27
2022-11-05T17:43:11.359Z,4.10
2022-11-05T17:45:47.568Z,6.40
2022-11-05T17:48:15.742Z,7.70
2022-11-05T17:50:44.329Z,6.90
2022-11-05T17:53:15.748Z,8.47
2022-11-05T17:55:46.574Z,8.63
2022-11-05T17:58:13.985Z,8.83
2022-11-05T18:00:42.547Z,4.90
2022-11-05T18:03:11.103Z,4.37
2022-11-05T18:05:40.921Z,8.60
2022-11-05T18:08:09.635Z,6.30
2022-11-05T18:10:38.068Z,3.07
2022-11-05T18:13:05.336Z,1.70
2022-11-05T18:15:33.885Z,2.80
2022-11-05T18:18:01.584Z,1.20
2022-11-05T18:20:28.891Z,1.10
2022-11-05T18:22:56.262Z,1.30
2022-11-05T18:25:23.242Z,3.27
2022-11-05T18:27:50.296Z,7.23
2022-11-05T18:30:17.640Z,6.90
2022-11-05T18:32:45.600Z,9.23
2022-11-05T18:35:15.219Z,9.43
2022-11-05T18:37:42.637Z,8.87
2022-11-05T18:40:10.693Z,4.73
2022-11-05T18:42:37.862Z,3.03
2022-11-05T18:45:06.803Z,3.53
2022-11-05T18:47:34.265Z,1.77
2022-11-05T18:50:02.853Z,1.50
2022-11-05T18:52:32.463Z,1.90
2022-11-05T18:55:00.616Z,1.03
2022-11-05T18:57:28.615Z,1.10
2022-11-05T18:59:58.563Z,1.20
2022-11-05T19:02:26.033Z,1.10
2022-11-05T19:05:26.729Z,4.10
2022-11-05T19:07:43.233Z,5.47
2022-11-05T19:10:12.171Z,4.60
2022-11-05T19:12:41.005Z,6.23
2022-11-05T19:15:09.525Z,6.53
2022-11-05T19:17:37.022Z,3.10
2022-11-05T19:20:05.313Z,1.17
2022-11-05T19:22:35.343Z,2.50
2022-11-05T19:25:02.631Z,1.30
2022-11-05T19:27:29.767Z,2.83
2022-11-05T19:29:56.898Z,1.10
2022-11-05T19:32:24.706Z,3.57
2022-11-05T19:34:51.968Z,6.73
2022-11-05T19:37:20.093Z,7.40
2022-11-05T19:39:47.190Z,9.53
2022-11-05T19:42:14.384Z,7.23
2022-11-05T19:44:41.854Z,8.90
2022-11-05T19:47:09.026Z,7.43
2022-11-05T19:49:36.156Z,3.17
2022-11-05T19:52:03.854Z,1.00
2022-11-05T19:54:36.177Z,1.07
2022-11-05T19:57:03.772Z,1.33
2022-11-05T19:59:31.153Z,1.00
2022-11-05T20:01:58.679Z,1.20
2022-11-05T20:04:26.173Z,1.13
2022-11-05T20:06:53.583Z,4.00
2022-11-05T20:09:22.722Z,7.13
2022-11-05T20:11:51.256Z,8.03
2022-11-05T20:14:18.573Z,7.03
2022-11-05T20:16:46.704Z,11.13
2022-11-05T20:19:16.290Z,7.83
2022-11-05T20:21:43.677Z,9.63
2022-11-05T20:24:22.092Z,4.00
2022-11-05T20:26:52.086Z,7.80
2022-11-05T20:29:19.132Z,7.13
2022-11-05T20:31:46.622Z,12.73
2022-11-05T20:34:13.881Z,10.13
2022-11-05T20:36:44.021Z,4.53
2022-11-05T20:39:12.261Z,4.53
2022-11-05T20:41:43.244Z,8.43
2022-11-05T20:44:10.398Z,4.90
2022-11-05T20:46:38.234Z,3.80
2022-11-05T20:49:08.456Z,2.90
2022-11-05T20:51:35.852Z,2.67
2022-11-05T20:54:04.108Z,1.37
2022-11-05T20:56:35.062Z,1.10
2022-11-05T20:59:03.145Z,1.30
2022-11-05T21:01:35.475Z,1.13
2022-11-05T21:04:04.361Z,1.53
2022-11-05T21:06:32.430Z,1.37
2022-11-05T21:08:59.522Z,1.77
2022-11-05T21:11:26.653Z,1.60
2022-11-05T21:13:54.232Z,4.20
2022-11-05T21:16:22.191Z,9.27
2022-11-05T21:18:49.318Z,7.63
2022-11-05T21:21:18.785Z,10.93
2022-11-05T21:23:45.962Z,8.30
2022-11-05T21:26:14.216Z,10.03
2022-11-05T21:28:42.638Z,5.97
2022-11-05T21:31:10.565Z,7.73
2022-11-05T21:33:37.839Z,2.80
2022-11-05T21:36:10.939Z,1.30
2022-11-05T21:38:41.047Z,2.73
2022-11-05T21:41:08.981Z,2.73
2022-11-05T21:43:37.634Z,3.37
2022-11-05T21:46:05.380Z,1.00
2022-11-05T21:48:33.374Z,2.93
2022-11-05T21:51:18.852Z,0.97
2022-11-05T21:54:04.991Z,10.13
2022-11-05T21:56:51.188Z,2.90
2022-11-05T21:59:42.357Z,9.90
2022-11-05T22:02:11.537Z,7.55
2022-11-05T22:04:41.274Z,8.60
2022-11-05T22:07:09.954Z,5.00
2022-11-05T22:09:37.218Z,12.33
2022-11-05T22:12:04.728Z,1.23
2022-11-05T22:14:32.652Z,3.30
2022-11-05T22:17:00.223Z,1.20
2022-11-05T22:19:27.879Z,1.47
2022-11-05T22:21:54.914Z,2.23
2022-11-05T22:24:22.841Z,7.33
2022-11-05T22:26:56.157Z,7.90
2022-11-05T22:29:26.003Z,5.23
2022-11-05T22:31:53.322Z,7.77
2022-11-05T22:34:20.910Z,8.20
2022-11-05T22:36:48.331Z,9.13
2022-11-05T22:39:15.833Z,9.60
2022-11-05T22:41:44.042Z,9.53
2022-11-05T22:44:12.026Z,3.87
2022-11-05T22:46:40.542Z,8.47
2022-11-05T22:49:07.706Z,2.23
2022-11-05T22:51:36.696Z,1.60
2022-11-05T22:54:04.256Z,1.10
2022-11-05T22:56:34.235Z,1.30
2022-11-05T22:59:01.884Z,1.10
2022-11-05T23:01:29.584Z,1.87
2022-11-05T23:03:58.145Z,1.20
2022-11-05T23:06:54.074Z,1.53
2022-11-05T23:09:45.567Z,7.20
2022-11-05T23:12:39.078Z,9.00
2022-11-05T23:15:08.198Z,5.13
2022-11-05T23:17:54.042Z,1.83
2022-11-05T23:20:52.772Z,6.60
2022-11-05T23:24:10.805Z,7.90
2022-11-05T23:27:00.030Z,3.03
2022-11-05T23:29:40.748Z,1.77
2022-11-05T23:32:37.746Z,3.90
2022-11-05T23:35:26.309Z,1.47
2022-11-05T23:38:21.263Z,5.00
2022-11-05T23:41:24.167Z,8.73
2022-11-05T23:44:23.268Z,8.20
2022-11-05T23:47:23.177Z,8.70
2022-11-05T23:49:54.521Z,8.33
2022-11-05T23:52:36.325Z,8.13
2022-11-05T23:55:20.463Z,3.13
2022-11-05T23:58:04.027Z,9.47
